createdAt,value
2017-03-22T00:00:28.038Z,1004.75
2017-03-22T00:01:29.466Z,1004.71
2017-03-22T00:02:30.882Z,1004.74
2017-03-22T00:03:32.334Z,1004.72
2017-03-22T00:04:33.751Z,1004.77
2017-03-22T00:05:35.183Z,1004.71
2017-03-22T00:06:36.604Z,1004.74
2017-03-22T00:07:38.029Z,1004.71
2017-03-22T00:08:39.455Z,1004.72
2017-03-22T00:09:40.871Z,1004.71
2017-03-22T00:10:42.289Z,1004.68
2017-03-22T00:11:43.714Z,1004.69
2017-03-22T00:12:45.130Z,1004.67
2017-03-22T00:13:46.556Z,1004.67
2017-03-22T00:14:47.978Z,1004.66
2017-03-22T00:15:49.406Z,1004.67
2017-03-22T00:16:50.827Z,1004.63
2017-03-22T00:17:52.251Z,1004.62
2017-03-22T00:18:53.676Z,1004.62
2017-03-22T00:19:55.094Z,1004.61
2017-03-22T00:20:56.516Z,1004.61
2017-03-22T00:21:57.939Z,1004.60
2017-03-22T00:22:59.367Z,1004.60
2017-03-22T00:24:00.812Z,1004.62
2017-03-22T00:25:02.221Z,1004.58
2017-03-22T00:26:03.637Z,1004.57
2017-03-22T00:27:05.062Z,1004.61
2017-03-22T00:28:06.476Z,1004.57
2017-03-22T00:29:07.903Z,1004.55
2017-03-22T00:30:09.328Z,1004.55
2017-03-22T00:31:10.747Z,1004.54
2017-03-22T00:32:12.801Z,1004.56
2017-03-22T00:33:14.286Z,1004.49
2017-03-22T00:34:15.711Z,1004.50
2017-03-22T00:35:17.130Z,1004.49
2017-03-22T00:36:18.559Z,1004.53
2017-03-22T00:37:20.085Z,1004.51
2017-03-22T00:38:21.506Z,1004.55
2017-03-22T00:39:22.931Z,1004.51
2017-03-22T00:40:24.348Z,1004.50
2017-03-22T00:41:25.772Z,1004.49
2017-03-22T00:42:27.194Z,1004.46
2017-03-22T00:43:28.620Z,1004.46
2017-03-22T00:44:30.045Z,1004.47
2017-03-22T00:45:31.474Z,1004.49
2017-03-22T00:46:32.899Z,1004.50
2017-03-22T00:47:34.320Z,1004.49
2017-03-22T00:48:35.743Z,1004.52
2017-03-22T00:49:37.160Z,1004.54
2017-03-22T00:50:38.583Z,1004.59
2017-03-22T00:51:40.003Z,1004.55
2017-03-22T00:52:41.446Z,1004.55
2017-03-22T00:53:42.871Z,1004.56
2017-03-22T00:54:44.287Z,1004.57
2017-03-22T00:55:45.706Z,1004.55
2017-03-22T00:56:47.127Z,1004.56
2017-03-22T00:57:48.552Z,1004.55
2017-03-22T00:58:49.971Z,1004.52
2017-03-22T00:59:51.407Z,1004.52
2017-03-22T01:00:52.841Z,1004.53
2017-03-22T01:01:54.260Z,1004.54
2017-03-22T01:02:55.677Z,1004.47
2017-03-22T01:03:57.139Z,1004.47
2017-03-22T01:04:58.519Z,1004.46
2017-03-22T01:05:59.946Z,1004.49
2017-03-22T01:07:01.378Z,1004.49
2017-03-22T01:08:02.792Z,1004.46
2017-03-22T01:09:04.217Z,1004.49
2017-03-22T01:10:05.633Z,1004.47
2017-03-22T01:11:07.071Z,1004.47
2017-03-22T01:12:08.498Z,1004.47
2017-03-22T01:13:09.922Z,1004.49
2017-03-22T01:14:11.343Z,1004.45
2017-03-22T01:15:12.770Z,1004.46
2017-03-22T01:16:14.198Z,1004.48
2017-03-22T01:17:15.618Z,1004.44
2017-03-22T01:18:17.039Z,1004.45
2017-03-22T01:19:18.461Z,1004.48
2017-03-22T01:20:19.879Z,1004.44
2017-03-22T01:21:21.294Z,1004.46
2017-03-22T01:22:22.720Z,1004.50
2017-03-22T01:23:24.144Z,1004.47
2017-03-22T01:24:25.563Z,1004.48
2017-03-22T01:25:26.986Z,1004.47
2017-03-22T01:26:28.412Z,1004.49
2017-03-22T01:27:29.839Z,1004.45
2017-03-22T01:28:31.263Z,1004.46
2017-03-22T01:29:32.698Z,1004.44
2017-03-22T01:30:34.119Z,1004.48
2017-03-22T01:31:35.548Z,1004.45
2017-03-22T01:32:36.966Z,1004.48
2017-03-22T01:33:38.384Z,1004.51
2017-03-22T01:34:39.811Z,1004.48
2017-03-22T01:35:41.230Z,1004.46
2017-03-22T01:36:42.651Z,1004.42
2017-03-22T01:37:44.073Z,1004.48
2017-03-22T01:38:45.494Z,1004.49
2017-03-22T01:39:46.930Z,1004.48
2017-03-22T01:40:48.348Z,1004.49
2017-03-22T01:41:49.767Z,1004.45
2017-03-22T01:42:51.187Z,1004.46
2017-03-22T01:43:52.606Z,1004.44
2017-03-22T01:44:54.028Z,1004.42
2017-03-22T01:45:55.444Z,1004.45
2017-03-22T01:46:56.868Z,1004.41
2017-03-22T01:47:58.287Z,1004.47
2017-03-22T01:48:59.705Z,1004.45
2017-03-22T01:50:01.713Z,1004.45
2017-03-22T01:51:03.127Z,1004.41
2017-03-22T01:52:04.550Z,1004.40
2017-03-22T01:53:06.032Z,1004.39
2017-03-22T01:54:07.451Z,1004.44
2017-03-22T01:55:08.870Z,1004.38
2017-03-22T01:56:10.346Z,1004.41
2017-03-22T01:57:11.760Z,1004.38
2017-03-22T01:58:13.183Z,1004.41
2017-03-22T01:59:14.610Z,1004.42
2017-03-22T02:00:16.030Z,1004.43
2017-03-22T02:01:17.452Z,1004.42
2017-03-22T02:02:18.868Z,1004.47
2017-03-22T02:03:20.296Z,1004.41
2017-03-22T02:04:21.717Z,1004.42
2017-03-22T02:05:23.138Z,1004.43
2017-03-22T02:06:24.555Z,1004.45
2017-03-22T02:07:25.967Z,1004.44
2017-03-22T02:08:27.396Z,1004.42
2017-03-22T02:09:29.498Z,1004.46
2017-03-22T02:10:30.923Z,1004.45
2017-03-22T02:11:32.338Z,1004.46
2017-03-22T02:12:33.759Z,1004.47
2017-03-22T02:13:35.190Z,1004.45
2017-03-22T02:14:36.610Z,1004.42
2017-03-22T02:15:38.026Z,1004.48
2017-03-22T02:16:39.448Z,1004.46
2017-03-22T02:17:40.868Z,1004.43
2017-03-22T02:18:42.279Z,1004.47
2017-03-22T02:19:43.707Z,1004.42
2017-03-22T02:20:45.126Z,1004.42
2017-03-22T02:21:46.549Z,1004.44
2017-03-22T02:22:47.976Z,1004.43
2017-03-22T02:23:49.392Z,1004.44
2017-03-22T02:24:50.815Z,1004.46
2017-03-22T02:25:52.231Z,1004.44
2017-03-22T02:26:53.652Z,1004.42
2017-03-22T02:27:55.068Z,1004.42
2017-03-22T02:28:56.498Z,1004.40
2017-03-22T02:29:58.036Z,1004.43
2017-03-22T02:30:59.452Z,1004.43
2017-03-22T02:32:00.879Z,1004.50
2017-03-22T02:33:02.315Z,1004.49
2017-03-22T02:34:03.736Z,1004.52
2017-03-22T02:35:05.174Z,1004.49
2017-03-22T02:36:06.587Z,1004.50
2017-03-22T02:37:08.003Z,1004.55
2017-03-22T02:38:09.429Z,1004.51
2017-03-22T02:39:10.853Z,1004.49
2017-03-22T02:40:12.273Z,1004.53
2017-03-22T02:41:13.700Z,1004.50
2017-03-22T02:42:15.121Z,1004.51
2017-03-22T02:43:16.553Z,1004.49
2017-03-22T02:44:17.982Z,1004.50
2017-03-22T02:45:19.398Z,1004.54
2017-03-22T02:46:20.820Z,1004.62
2017-03-22T02:47:22.247Z,1004.55
2017-03-22T02:48:23.671Z,1004.52
2017-03-22T02:49:25.100Z,1004.59
2017-03-22T02:50:26.525Z,1004.57
2017-03-22T02:51:27.935Z,1004.58
2017-03-22T02:52:29.356Z,1004.60
2017-03-22T02:53:30.779Z,1004.56
2017-03-22T02:54:32.203Z,1004.56
2017-03-22T02:55:34.076Z,1004.63
2017-03-22T02:56:35.498Z,1004.68
2017-03-22T02:57:36.919Z,1004.70
2017-03-22T02:58:38.355Z,1004.69
2017-03-22T02:59:39.771Z,1004.72
2017-03-22T03:00:41.195Z,1004.66
2017-03-22T03:01:42.616Z,1004.72
2017-03-22T03:02:44.039Z,1004.67
2017-03-22T03:03:45.457Z,1004.71
2017-03-22T03:04:46.873Z,1004.70
2017-03-22T03:05:48.294Z,1004.72
2017-03-22T03:06:49.707Z,1004.67
2017-03-22T03:07:51.146Z,1004.68
2017-03-22T03:08:52.564Z,1004.63
2017-03-22T03:09:53.984Z,1004.65
2017-03-22T03:10:55.409Z,1004.63
2017-03-22T03:11:56.829Z,1004.62
2017-03-22T03:12:58.260Z,1004.70
2017-03-22T03:13:59.678Z,1004.64
2017-03-22T03:15:01.100Z,1004.73
2017-03-22T03:16:02.520Z,1004.74
2017-03-22T03:17:03.941Z,1004.69
2017-03-22T03:18:05.366Z,1004.73
2017-03-22T03:19:06.781Z,1004.73
2017-03-22T03:20:08.204Z,1004.75
2017-03-22T03:21:09.630Z,1004.72
2017-03-22T03:22:11.057Z,1004.77
2017-03-22T03:23:12.485Z,1004.76
2017-03-22T03:24:13.909Z,1004.71
2017-03-22T03:25:15.326Z,1004.69
2017-03-22T03:26:16.769Z,1004.73
2017-03-22T03:27:18.183Z,1004.71
2017-03-22T03:28:19.605Z,1004.67
2017-03-22T03:29:21.022Z,1004.67
2017-03-22T03:30:22.438Z,1004.70
2017-03-22T03:31:23.863Z,1004.75
2017-03-22T03:32:25.278Z,1004.72
2017-03-22T03:33:26.700Z,1004.70
2017-03-22T03:34:28.114Z,1004.73
2017-03-22T03:35:29.534Z,1004.70
2017-03-22T03:36:30.953Z,1004.69
2017-03-22T03:37:32.372Z,1004.71
2017-03-22T03:38:33.795Z,1004.74
2017-03-22T03:39:35.209Z,1004.69
2017-03-22T03:40:36.678Z,1004.72
2017-03-22T03:41:38.127Z,1004.70
2017-03-22T03:42:39.545Z,1004.73
2017-03-22T03:43:40.957Z,1004.72
2017-03-22T03:44:42.439Z,1004.72
2017-03-22T03:45:43.848Z,1004.71
2017-03-22T03:46:45.276Z,1004.73
2017-03-22T03:47:46.695Z,1004.72
2017-03-22T03:48:48.116Z,1004.69
2017-03-22T03:49:49.534Z,1004.80
2017-03-22T03:50:50.954Z,1004.78
2017-03-22T03:51:52.481Z,1004.75
2017-03-22T03:52:53.903Z,1004.77
2017-03-22T03:53:55.322Z,1004.78
2017-03-22T03:54:56.807Z,1004.79
2017-03-22T03:55:58.224Z,1004.75
2017-03-22T03:56:59.638Z,1004.75
2017-03-22T03:58:01.063Z,1004.75
2017-03-22T03:59:02.483Z,1004.76
2017-03-22T04:00:03.900Z,1004.79
2017-03-22T04:01:05.320Z,1004.77
2017-03-22T04:02:06.736Z,1004.72
2017-03-22T04:03:08.153Z,1004.74
2017-03-22T04:04:09.572Z,1004.73
2017-03-22T04:05:10.992Z,1004.74
2017-03-22T04:06:12.407Z,1004.74
2017-03-22T04:07:13.826Z,1004.75
2017-03-22T04:08:15.281Z,1004.77
2017-03-22T04:09:16.667Z,1004.79
2017-03-22T04:10:18.087Z,1004.77
2017-03-22T04:11:19.506Z,1004.81
2017-03-22T04:12:20.930Z,1004.79
2017-03-22T04:13:22.354Z,1004.80
2017-03-22T04:14:23.774Z,1004.80
2017-03-22T04:15:25.202Z,1004.78
2017-03-22T04:16:26.620Z,1004.75
2017-03-22T04:17:28.040Z,1004.73
2017-03-22T04:18:29.462Z,1004.74
2017-03-22T04:19:30.884Z,1004.72
2017-03-22T04:20:32.301Z,1004.69
2017-03-22T04:21:33.722Z,1004.71
2017-03-22T04:22:35.141Z,1004.75
2017-03-22T04:23:36.560Z,1004.75
2017-03-22T04:24:38.009Z,1004.75
2017-03-22T04:25:39.402Z,1004.72
2017-03-22T04:26:40.819Z,1004.66
2017-03-22T04:27:42.246Z,1004.66
2017-03-22T04:28:44.529Z,1004.67
2017-03-22T04:29:45.951Z,1004.70
2017-03-22T04:30:47.364Z,1004.65
2017-03-22T04:31:48.813Z,1004.64
2017-03-22T04:32:50.249Z,1004.66
2017-03-22T04:33:51.659Z,1004.67
2017-03-22T04:34:53.078Z,1004.65
2017-03-22T04:35:54.504Z,1004.61
2017-03-22T04:36:56.029Z,1004.59
2017-03-22T04:37:57.448Z,1004.56
2017-03-22T04:38:58.872Z,1004.60
2017-03-22T04:40:00.292Z,1004.62
2017-03-22T04:41:01.713Z,1004.61
2017-03-22T04:42:03.128Z,1004.63
2017-03-22T04:43:04.545Z,1004.64
2017-03-22T04:44:05.980Z,1004.69
2017-03-22T04:45:07.402Z,1004.64
2017-03-22T04:46:08.816Z,1004.65
2017-03-22T04:47:10.233Z,1004.65
2017-03-22T04:48:11.649Z,1004.67
2017-03-22T04:49:13.067Z,1004.64
2017-03-22T04:50:14.487Z,1004.63
2017-03-22T04:51:15.902Z,1004.66
2017-03-22T04:52:17.316Z,1004.65
2017-03-22T04:53:18.738Z,1004.68
2017-03-22T04:54:20.163Z,1004.72
2017-03-22T04:55:21.588Z,1004.69
2017-03-22T04:56:22.997Z,1004.69
2017-03-22T04:57:24.411Z,1004.66
2017-03-22T04:58:25.831Z,1004.68
2017-03-22T04:59:27.252Z,1004.72
2017-03-22T05:00:28.669Z,1004.68
2017-03-22T05:01:30.125Z,1004.69
2017-03-22T05:02:31.519Z,1004.71
2017-03-22T05:03:32.946Z,1004.73
2017-03-22T05:04:34.365Z,1004.67
2017-03-22T05:05:35.787Z,1004.67
2017-03-22T05:06:37.216Z,1004.68
2017-03-22T05:07:38.637Z,1004.64
2017-03-22T05:08:40.059Z,1004.72
2017-03-22T05:09:41.473Z,1004.69
2017-03-22T05:10:42.897Z,1004.68
2017-03-22T05:11:44.308Z,1004.70
2017-03-22T05:12:45.730Z,1004.70
2017-03-22T05:13:47.150Z,1004.70
2017-03-22T05:14:48.581Z,1004.72
2017-03-22T05:15:49.998Z,1004.74
2017-03-22T05:16:51.418Z,1004.72
2017-03-22T05:17:52.837Z,1004.68
2017-03-22T05:18:54.261Z,1004.71
2017-03-22T05:19:55.681Z,1004.73
2017-03-22T05:20:57.095Z,1004.73
2017-03-22T05:21:58.653Z,1004.72
2017-03-22T05:23:00.078Z,1004.72
2017-03-22T05:24:01.506Z,1004.68
2017-03-22T05:25:02.935Z,1004.71
2017-03-22T05:26:04.355Z,1004.74
2017-03-22T05:27:05.775Z,1004.68
2017-03-22T05:28:07.205Z,1004.72
2017-03-22T05:29:08.632Z,1004.70
2017-03-22T05:30:10.162Z,1004.70
2017-03-22T05:31:11.583Z,1004.75
2017-03-22T05:32:12.999Z,1004.75
2017-03-22T05:33:14.426Z,1004.80
2017-03-22T05:34:15.858Z,1004.76
2017-03-22T05:35:17.276Z,1004.75
2017-03-22T05:36:18.704Z,1004.77
2017-03-22T05:37:21.090Z,1004.81
2017-03-22T05:38:22.511Z,1004.77
2017-03-22T05:39:23.931Z,1004.80
2017-03-22T05:40:25.360Z,1004.78
2017-03-22T05:41:26.771Z,1004.79
2017-03-22T05:42:28.199Z,1004.79
2017-03-22T05:43:29.624Z,1004.78
2017-03-22T05:44:31.045Z,1004.79
2017-03-22T05:45:32.469Z,1004.79
2017-03-22T05:46:33.893Z,1004.84
2017-03-22T05:47:35.318Z,1004.82
2017-03-22T05:48:36.754Z,1004.81
2017-03-22T05:49:38.187Z,1004.84
2017-03-22T05:50:39.610Z,1004.81
2017-03-22T05:51:41.038Z,1004.81
2017-03-22T05:52:42.460Z,1004.78
2017-03-22T05:53:43.894Z,1004.78
2017-03-22T05:54:45.326Z,1004.82
2017-03-22T05:55:46.752Z,1004.81
2017-03-22T05:56:48.178Z,1004.81
2017-03-22T05:57:49.598Z,1004.84
2017-03-22T05:58:51.022Z,1004.82
2017-03-22T05:59:52.439Z,1004.85
2017-03-22T06:00:53.865Z,1004.85
2017-03-22T06:01:55.807Z,1004.81
2017-03-22T06:02:57.239Z,1004.83
2017-03-22T06:03:58.665Z,1004.84
2017-03-22T06:05:00.091Z,1004.85
2017-03-22T06:06:01.512Z,1004.84
2017-03-22T06:07:02.930Z,1004.84
2017-03-22T06:08:04.357Z,1004.86
2017-03-22T06:09:05.779Z,1004.83
2017-03-22T06:10:07.205Z,1004.82
2017-03-22T06:11:08.626Z,1004.81
2017-03-22T06:12:10.052Z,1004.76
2017-03-22T06:13:11.473Z,1004.81
2017-03-22T06:14:12.903Z,1004.72
2017-03-22T06:15:14.331Z,1004.77
2017-03-22T06:16:15.769Z,1004.74
2017-03-22T06:17:17.191Z,1004.75
2017-03-22T06:18:18.615Z,1004.69
2017-03-22T06:19:20.034Z,1004.69
2017-03-22T06:20:21.460Z,1004.68
2017-03-22T06:21:22.886Z,1004.64
2017-03-22T06:22:24.309Z,1004.71
2017-03-22T06:23:25.727Z,1004.70
2017-03-22T06:24:27.150Z,1004.66
2017-03-22T06:25:28.575Z,1004.63
2017-03-22T06:26:30.002Z,1004.62
2017-03-22T06:27:31.418Z,1004.69
2017-03-22T06:28:32.845Z,1004.67
2017-03-22T06:29:34.276Z,1004.65
2017-03-22T06:30:35.702Z,1004.69
2017-03-22T06:31:37.124Z,1004.68
2017-03-22T06:32:38.548Z,1004.71
2017-03-22T06:33:39.976Z,1004.65
2017-03-22T06:34:41.399Z,1004.70
2017-03-22T06:35:42.824Z,1004.64
2017-03-22T06:36:44.249Z,1004.65
2017-03-22T06:37:45.676Z,1004.68
2017-03-22T06:38:47.094Z,1004.65
2017-03-22T06:39:48.523Z,1004.64
2017-03-22T06:40:49.950Z,1004.63
2017-03-22T06:41:51.375Z,1004.65
2017-03-22T06:42:52.801Z,1004.62
2017-03-22T06:43:54.227Z,1004.61
2017-03-22T06:44:55.654Z,1004.62
2017-03-22T06:45:57.074Z,1004.61
2017-03-22T06:46:58.498Z,1004.65
2017-03-22T06:47:59.928Z,1004.67
2017-03-22T06:49:01.352Z,1004.63
2017-03-22T06:50:02.775Z,1004.62
2017-03-22T06:51:04.306Z,1004.66
2017-03-22T06:52:05.726Z,1004.66
2017-03-22T06:53:07.155Z,1004.67
2017-03-22T06:54:08.598Z,1004.68
2017-03-22T06:55:10.021Z,1004.68
2017-03-22T06:56:11.462Z,1004.68
2017-03-22T06:57:12.887Z,1004.63
2017-03-22T06:58:14.315Z,1004.71
2017-03-22T06:59:15.738Z,1004.66
2017-03-22T07:00:17.160Z,1004.68
2017-03-22T07:01:18.669Z,1004.65
2017-03-22T07:02:20.150Z,1004.69
2017-03-22T07:03:21.592Z,1004.68
2017-03-22T07:04:23.021Z,1004.69
2017-03-22T07:05:24.496Z,1004.74
2017-03-22T07:06:25.923Z,1004.67
2017-03-22T07:07:27.353Z,1004.70
2017-03-22T07:08:28.783Z,1004.70
2017-03-22T07:09:30.212Z,1004.70
2017-03-22T07:10:31.640Z,1004.72
2017-03-22T07:11:33.061Z,1004.72
2017-03-22T07:12:34.497Z,1004.71
2017-03-22T07:13:35.935Z,1004.76
2017-03-22T07:14:37.357Z,1004.79
2017-03-22T07:15:38.787Z,1004.77
2017-03-22T07:16:40.213Z,1004.86
2017-03-22T07:17:41.642Z,1004.79
2017-03-22T07:18:43.068Z,1004.81
2017-03-22T07:19:44.488Z,1004.86
2017-03-22T07:20:45.908Z,1004.79
2017-03-22T07:21:47.341Z,1004.83
2017-03-22T07:22:48.773Z,1004.84
2017-03-22T07:23:50.192Z,1004.87
2017-03-22T07:24:51.627Z,1004.86
2017-03-22T07:25:53.046Z,1004.86
2017-03-22T07:26:54.469Z,1004.89
2017-03-22T07:27:55.893Z,1004.92
2017-03-22T07:28:57.323Z,1004.94
2017-03-22T07:29:58.746Z,1004.92
2017-03-22T07:31:00.174Z,1004.92
2017-03-22T07:32:01.601Z,1004.94
2017-03-22T07:33:03.024Z,1004.99
2017-03-22T07:34:04.454Z,1005.00
2017-03-22T07:35:05.880Z,1005.02
2017-03-22T07:36:07.311Z,1005.09
2017-03-22T07:37:08.736Z,1005.09
2017-03-22T07:38:10.163Z,1005.10
2017-03-22T07:39:11.588Z,1005.13
2017-03-22T07:40:13.013Z,1005.13
2017-03-22T07:41:14.456Z,1005.11
2017-03-22T07:42:15.881Z,1005.16
2017-03-22T07:43:17.304Z,1005.16
2017-03-22T07:44:18.730Z,1005.13
2017-03-22T07:45:20.158Z,1005.16
2017-03-22T07:46:21.584Z,1005.15
2017-03-22T07:47:23.012Z,1005.18
2017-03-22T07:48:24.438Z,1005.18
2017-03-22T07:49:25.862Z,1005.16
2017-03-22T07:50:27.293Z,1005.14
2017-03-22T07:51:28.722Z,1005.15
2017-03-22T07:52:30.144Z,1005.16
2017-03-22T07:53:32.559Z,1005.16
2017-03-22T07:54:33.981Z,1005.20
2017-03-22T07:55:35.408Z,1005.22
2017-03-22T07:56:36.842Z,1005.23
2017-03-22T07:57:38.275Z,1005.19
2017-03-22T07:58:39.705Z,1005.21
2017-03-22T07:59:41.137Z,1005.22
2017-03-22T08:00:42.565Z,1005.26
2017-03-22T08:01:43.994Z,1005.18
2017-03-22T08:02:45.427Z,1005.19
2017-03-22T08:03:46.864Z,1005.18
2017-03-22T08:04:48.315Z,1005.23
2017-03-22T08:05:49.735Z,1005.27
2017-03-22T08:06:51.169Z,1005.31
2017-03-22T08:07:52.601Z,1005.30
2017-03-22T08:08:54.032Z,1005.31
2017-03-22T08:09:55.451Z,1005.23
2017-03-22T08:10:56.886Z,1005.35
2017-03-22T08:11:58.322Z,1005.30
2017-03-22T08:12:59.746Z,1005.32
2017-03-22T08:14:01.175Z,1005.34
2017-03-22T08:15:02.605Z,1005.37
2017-03-22T08:16:04.138Z,1005.33
2017-03-22T08:17:06.297Z,1005.33
2017-03-22T08:18:07.728Z,1005.38
2017-03-22T08:19:09.151Z,1005.35
2017-03-22T08:20:10.591Z,1005.38
2017-03-22T08:21:12.019Z,1005.38
2017-03-22T08:22:13.447Z,1005.38
2017-03-22T08:23:14.881Z,1005.37
2017-03-22T08:24:16.300Z,1005.37
2017-03-22T08:25:18.292Z,1005.36
2017-03-22T08:26:19.728Z,1005.34
2017-03-22T08:27:21.154Z,1005.32
2017-03-22T08:28:22.588Z,1005.40
2017-03-22T08:29:24.019Z,1005.38
2017-03-22T08:30:25.440Z,1005.35
2017-03-22T08:31:26.866Z,1005.36
2017-03-22T08:32:28.295Z,1005.39
2017-03-22T08:33:29.759Z,1005.37
2017-03-22T08:34:31.931Z,1005.39
2017-03-22T08:35:33.351Z,1005.36
2017-03-22T08:36:34.781Z,1005.37
2017-03-22T08:37:36.204Z,1005.41
2017-03-22T08:38:38.261Z,1005.41
2017-03-22T08:39:39.681Z,1005.45
2017-03-22T08:40:41.114Z,1005.41
2017-03-22T08:41:42.535Z,1005.37
2017-03-22T08:42:43.961Z,1005.42
2017-03-22T08:43:45.398Z,1005.43
2017-03-22T08:44:46.827Z,1005.42
2017-03-22T08:45:48.256Z,1005.42
2017-03-22T08:46:49.683Z,1005.42
2017-03-22T08:47:51.121Z,1005.40
2017-03-22T08:48:52.553Z,1005.40
2017-03-22T08:49:53.984Z,1005.48
2017-03-22T08:50:55.409Z,1005.42
2017-03-22T08:51:56.834Z,1005.43
2017-03-22T08:52:58.267Z,1005.42
2017-03-22T08:53:59.692Z,1005.38
2017-03-22T08:55:01.121Z,1005.39
2017-03-22T08:56:02.543Z,1005.39
2017-03-22T08:57:03.993Z,1005.38
2017-03-22T08:58:05.409Z,1005.43
2017-03-22T08:59:07.525Z,1005.41
2017-03-22T09:00:08.954Z,1005.39
2017-03-22T09:01:10.393Z,1005.40
2017-03-22T09:02:11.817Z,1005.42
2017-03-22T09:03:13.243Z,1005.40
2017-03-22T09:04:14.676Z,1005.39
2017-03-22T09:05:16.105Z,1005.44
2017-03-22T09:06:17.534Z,1005.42
2017-03-22T09:07:18.966Z,1005.43
2017-03-22T09:08:20.396Z,1005.44
2017-03-22T09:09:21.829Z,1005.43
2017-03-22T09:10:23.250Z,1005.45
2017-03-22T09:11:24.688Z,1005.38
2017-03-22T09:12:26.116Z,1005.46
2017-03-22T09:13:27.552Z,1005.41
2017-03-22T09:14:28.986Z,1005.42
2017-03-22T09:15:30.410Z,1005.41
2017-03-22T09:16:32.481Z,1005.45
2017-03-22T09:17:33.916Z,1005.42
2017-03-22T09:18:35.348Z,1005.39
2017-03-22T09:19:36.781Z,1005.36
2017-03-22T09:20:38.212Z,1005.37
2017-03-22T09:21:39.642Z,1005.37
2017-03-22T09:22:41.078Z,1005.35
2017-03-22T09:23:42.501Z,1005.35
2017-03-22T09:24:43.935Z,1005.33
2017-03-22T09:25:45.359Z,1005.33
2017-03-22T09:26:46.790Z,1005.30
2017-03-22T09:27:49.045Z,1005.35
2017-03-22T09:28:50.485Z,1005.35
2017-03-22T09:29:51.914Z,1005.30
2017-03-22T09:30:53.348Z,1005.30
2017-03-22T09:31:54.773Z,1005.32
2017-03-22T09:32:56.206Z,1005.33
2017-03-22T09:33:57.627Z,1005.39
2017-03-22T09:34:59.058Z,1005.34
2017-03-22T09:36:00.490Z,1005.35
2017-03-22T09:37:01.921Z,1005.34
2017-03-22T09:38:03.349Z,1005.35
2017-03-22T09:39:04.780Z,1005.36
2017-03-22T09:40:06.217Z,1005.34
2017-03-22T09:41:07.644Z,1005.34
2017-03-22T09:42:09.751Z,1005.35
2017-03-22T09:43:11.183Z,1005.33
2017-03-22T09:44:12.614Z,1005.35
2017-03-22T09:45:14.048Z,1005.33
2017-03-22T09:46:15.479Z,1005.31
2017-03-22T09:47:16.917Z,1005.32
2017-03-22T09:48:18.345Z,1005.33
2017-03-22T09:49:20.640Z,1005.35
2017-03-22T09:50:22.069Z,1005.33
2017-03-22T09:51:23.498Z,1005.37
2017-03-22T09:52:24.928Z,1005.28
2017-03-22T09:53:26.353Z,1005.36
2017-03-22T09:54:27.783Z,1005.30
2017-03-22T09:55:29.932Z,1005.33
2017-03-22T09:56:30.710Z,1005.34
2017-03-22T09:57:32.150Z,1005.32
2017-03-22T09:58:33.582Z,1005.32
2017-03-22T09:59:35.011Z,1005.33
2017-03-22T10:00:36.443Z,1005.30
2017-03-22T10:01:37.876Z,1005.26
2017-03-22T10:02:39.311Z,1005.30
2017-03-22T10:03:40.743Z,1005.27
2017-03-22T10:04:42.177Z,1005.25
2017-03-22T10:05:43.611Z,1005.24
2017-03-22T10:06:45.038Z,1005.19
2017-03-22T10:07:46.467Z,1005.22
2017-03-22T10:08:47.897Z,1005.21
2017-03-22T10:09:49.331Z,1005.26
2017-03-22T10:10:50.790Z,1005.23
2017-03-22T10:11:52.240Z,1005.22
2017-03-22T10:12:53.672Z,1005.16
2017-03-22T10:13:55.106Z,1005.16
2017-03-22T10:14:56.557Z,1005.19
2017-03-22T10:15:57.998Z,1005.16
2017-03-22T10:16:59.421Z,1005.15
2017-03-22T10:18:00.860Z,1005.17
2017-03-22T10:19:02.358Z,1005.11
2017-03-22T10:20:03.785Z,1005.08
2017-03-22T10:21:05.221Z,1005.11
2017-03-22T10:22:06.649Z,1005.12
2017-03-22T10:23:08.081Z,1005.12
2017-03-22T10:24:09.521Z,1005.16
2017-03-22T10:25:10.957Z,1005.19
2017-03-22T10:26:12.459Z,1005.14
2017-03-22T10:27:13.896Z,1005.10
2017-03-22T10:28:15.329Z,1005.10
2017-03-22T10:29:16.770Z,1005.13
2017-03-22T10:30:18.198Z,1005.16
2017-03-22T10:31:19.645Z,1005.06
2017-03-22T10:32:21.077Z,1005.08
2017-03-22T10:33:22.569Z,1005.12
2017-03-22T10:34:24.011Z,1005.10
2017-03-22T10:35:25.446Z,1005.08
2017-03-22T10:36:26.882Z,1005.13
2017-03-22T10:37:28.342Z,1005.09
2017-03-22T10:38:29.770Z,1005.06
2017-03-22T10:39:31.211Z,1005.07
2017-03-22T10:40:32.658Z,1005.06
2017-03-22T10:41:34.103Z,1005.08
2017-03-22T10:42:35.537Z,1005.09
2017-03-22T10:43:36.973Z,1005.13
2017-03-22T10:44:38.411Z,1005.12
2017-03-22T10:45:39.846Z,1005.13
2017-03-22T10:46:41.279Z,1005.14
2017-03-22T10:47:42.706Z,1005.10
2017-03-22T10:48:44.151Z,1005.13
2017-03-22T10:49:45.595Z,1005.11
2017-03-22T10:50:47.037Z,1005.07
2017-03-22T10:51:48.481Z,1005.13
2017-03-22T10:52:49.916Z,1005.11
2017-03-22T10:53:51.350Z,1005.13
2017-03-22T10:54:52.818Z,1005.16
2017-03-22T10:55:54.347Z,1005.14
2017-03-22T10:56:55.776Z,1005.18
2017-03-22T10:57:57.209Z,1005.17
2017-03-22T10:58:58.650Z,1005.23
2017-03-22T11:00:00.107Z,1005.27
2017-03-22T11:01:01.549Z,1005.24
2017-03-22T11:02:02.979Z,1005.26
2017-03-22T11:03:04.413Z,1005.24
2017-03-22T11:04:05.848Z,1005.22
2017-03-22T11:05:07.278Z,1005.16
2017-03-22T11:06:08.717Z,1005.17
2017-03-22T11:07:10.185Z,1005.20
2017-03-22T11:08:11.634Z,1005.15
2017-03-22T11:09:13.071Z,1005.12
2017-03-22T11:10:14.511Z,1005.18
2017-03-22T11:11:15.946Z,1005.17
2017-03-22T11:12:17.382Z,1005.17
2017-03-22T11:13:18.836Z,1005.18
2017-03-22T11:14:20.319Z,1005.18
2017-03-22T11:15:21.756Z,1005.20
2017-03-22T11:16:23.193Z,1005.23
2017-03-22T11:17:24.633Z,1005.20
2017-03-22T11:18:26.090Z,1005.24
2017-03-22T11:19:27.521Z,1005.24
2017-03-22T11:20:28.958Z,1005.24
2017-03-22T11:21:30.391Z,1005.22
2017-03-22T11:22:31.834Z,1005.19
2017-03-22T11:23:33.277Z,1005.23
2017-03-22T11:24:34.701Z,1005.23
2017-03-22T11:25:36.132Z,1005.24
2017-03-22T11:26:37.574Z,1005.19
2017-03-22T11:27:39.006Z,1005.17
2017-03-22T11:28:40.445Z,1005.21
2017-03-22T11:29:41.874Z,1005.19
2017-03-22T11:30:43.312Z,1005.23
2017-03-22T11:31:45.436Z,1005.23
2017-03-22T11:32:46.870Z,1005.22
2017-03-22T11:33:48.307Z,1005.23
2017-03-22T11:34:49.746Z,1005.29
2017-03-22T11:35:51.180Z,1005.26
2017-03-22T11:36:52.622Z,1005.25
2017-03-22T11:37:54.056Z,1005.21
2017-03-22T11:38:55.497Z,1005.23
2017-03-22T11:39:56.933Z,1005.28
2017-03-22T11:40:58.376Z,1005.21
2017-03-22T11:41:59.803Z,1005.25
2017-03-22T11:43:01.242Z,1005.19
2017-03-22T11:44:02.697Z,1005.20
2017-03-22T11:45:04.125Z,1005.25
2017-03-22T11:46:05.558Z,1005.21
2017-03-22T11:47:06.995Z,1005.17
2017-03-22T11:48:08.429Z,1005.17
2017-03-22T11:49:09.868Z,1005.24
2017-03-22T11:50:11.312Z,1005.25
2017-03-22T11:51:12.743Z,1005.19
2017-03-22T11:52:14.183Z,1005.26
2017-03-22T11:53:15.613Z,1005.21
2017-03-22T11:54:17.711Z,1005.24
2017-03-22T11:55:19.144Z,1005.22
2017-03-22T11:56:20.583Z,1005.26
2017-03-22T11:57:22.022Z,1005.22
2017-03-22T11:58:23.465Z,1005.24
2017-03-22T11:59:24.992Z,1005.24
2017-03-22T12:00:26.427Z,1005.25
2017-03-22T12:01:27.861Z,1005.21
2017-03-22T12:02:29.295Z,1005.28
2017-03-22T12:03:30.737Z,1005.24
2017-03-22T12:04:32.173Z,1005.25
2017-03-22T12:05:34.363Z,1005.33
2017-03-22T12:06:35.822Z,1005.23
2017-03-22T12:07:37.241Z,1005.22
2017-03-22T12:08:38.789Z,1005.22
2017-03-22T12:09:40.227Z,1005.14
2017-03-22T12:10:41.659Z,1005.19
2017-03-22T12:11:43.095Z,1005.14
2017-03-22T12:12:44.546Z,1005.17
2017-03-22T12:13:46.567Z,1005.17
2017-03-22T12:14:48.014Z,1005.10
2017-03-22T12:15:49.441Z,1005.10
2017-03-22T12:16:50.876Z,1005.12
2017-03-22T12:17:52.310Z,1005.11
2017-03-22T12:18:53.752Z,1005.12
2017-03-22T12:19:55.186Z,1005.05
2017-03-22T12:20:56.620Z,1005.10
2017-03-22T12:21:58.056Z,1005.13
2017-03-22T12:22:59.498Z,1005.09